sensor_id;sensor_type;location;lat;lon;timestamp;P1;durP1;ratioP1;P2;durP2;ratioP2
2430;SDS011;1226;48.998;9.300;2022-07-23T00:02:23;8.48;;;7.58;;
2430;SDS011;1226;48.998;9.300;2022-07-23T00:04:49;7.98;;;7.30;;
2430;SDS011;1226;48.998;9.300;2022-07-23T00:07:15;10.30;;;8.60;;
2430;SDS011;1226;48.998;9.300;2022-07-23T00:09:41;8.88;;;8.04;;
2430;SDS011;1226;48.998;9.300;2022-07-23T00:12:06;9.46;;;8.66;;
2430;SDS011;1226;48.998;9.300;2022-07-23T00:14:32;8.16;;;7.28;;
2430;SDS011;1226;48.998;9.300;2022-07-23T00:16:58;7.30;;;6.60;;
2430;SDS011;1226;48.998;9.300;2022-07-23T00:19:24;8.46;;;7.64;;
2430;SDS011;1226;48.998;9.300;2022-07-23T00:21:51;8.30;;;7.04;;
2430;SDS011;1226;48.998;9.300;2022-07-23T00:24:16;8.06;;;7.00;;
2430;SDS011;1226;48.998;9.300;2022-07-23T00:26:42;7.90;;;7.20;;
2430;SDS011;1226;48.998;9.300;2022-07-23T00:29:07;8.72;;;7.92;;
2430;SDS011;1226;48.998;9.300;2022-07-23T00:31:33;8.90;;;7.36;;
2430;SDS011;1226;48.998;9.300;2022-07-23T00:33:59;7.56;;;6.96;;
2430;SDS011;1226;48.998;9.300;2022-07-23T00:36:25;9.10;;;7.66;;
2430;SDS011;1226;48.998;9.300;2022-07-23T00:38:51;8.34;;;7.14;;
2430;SDS011;1226;48.998;9.300;2022-07-23T00:41:17;7.00;;;6.32;;
2430;SDS011;1226;48.998;9.300;2022-07-23T00:43:43;7.04;;;6.32;;
2430;SDS011;1226;48.998;9.300;2022-07-23T00:46:08;6.84;;;6.12;;
2430;SDS011;1226;48.998;9.300;2022-07-23T00:48:34;6.90;;;6.20;;
2430;SDS011;1226;48.998;9.300;2022-07-23T00:51:00;7.24;;;6.60;;
2430;SDS011;1226;48.998;9.300;2022-07-23T00:53:26;7.32;;;6.16;;
2430;SDS011;1226;48.998;9.300;2022-07-23T00:55:53;6.18;;;5.68;;
2430;SDS011;1226;48.998;9.300;2022-07-23T00:58:18;7.88;;;6.10;;
2430;SDS011;1226;48.998;9.300;2022-07-23T01:00:44;6.54;;;5.50;;
2430;SDS011;1226;48.998;9.300;2022-07-23T01:03:09;7.26;;;6.62;;
2430;SDS011;1226;48.998;9.300;2022-07-23T01:05:35;6.82;;;6.22;;
2430;SDS011;1226;48.998;9.300;2022-07-23T01:08:01;6.50;;;5.90;;
2430;SDS011;1226;48.998;9.300;2022-07-23T01:10:27;7.14;;;6.20;;
2430;SDS011;1226;48.998;9.300;2022-07-23T01:12:56;6.00;;;5.40;;
2430;SDS011;1226;48.998;9.300;2022-07-23T01:15:22;7.10;;;6.34;;
2430;SDS011;1226;48.998;9.300;2022-07-23T01:17:48;7.70;;;6.44;;
2430;SDS011;1226;48.998;9.300;2022-07-23T01:20:13;6.06;;;5.46;;
2430;SDS011;1226;48.998;9.300;2022-07-23T01:22:39;7.06;;;6.36;;
2430;SDS011;1226;48.998;9.300;2022-07-23T01:25:06;6.86;;;6.18;;
2430;SDS011;1226;48.998;9.300;2022-07-23T01:27:31;6.42;;;5.82;;
2430;SDS011;1226;48.998;9.300;2022-07-23T01:29:57;7.70;;;6.90;;
2430;SDS011;1226;48.998;9.300;2022-07-23T01:32:23;7.10;;;6.50;;
2430;SDS011;1226;48.998;9.300;2022-07-23T01:34:49;10.10;;;6.34;;
2430;SDS011;1226;48.998;9.300;2022-07-23T01:37:15;6.36;;;5.76;;
2430;SDS011;1226;48.998;9.300;2022-07-23T01:39:41;6.82;;;5.60;;
2430;SDS011;1226;48.998;9.300;2022-07-23T01:42:06;8.50;;;6.86;;
2430;SDS011;1226;48.998;9.300;2022-07-23T01:44:32;6.08;;;5.52;;
2430;SDS011;1226;48.998;9.300;2022-07-23T01:46:58;7.00;;;6.30;;
2430;SDS011;1226;48.998;9.300;2022-07-23T01:49:24;6.46;;;5.86;;
2430;SDS011;1226;48.998;9.300;2022-07-23T01:51:50;7.72;;;6.50;;
2430;SDS011;1226;48.998;9.300;2022-07-23T01:54:22;6.68;;;6.08;;
2430;SDS011;1226;48.998;9.300;2022-07-23T01:56:47;6.30;;;5.70;;
2430;SDS011;1226;48.998;9.300;2022-07-23T01:59:13;6.92;;;6.04;;
2430;SDS011;1226;48.998;9.300;2022-07-23T02:01:39;6.40;;;5.80;;
2430;SDS011;1226;48.998;9.300;2022-07-23T02:04:05;6.10;;;5.50;;
2430;SDS011;1226;48.998;9.300;2022-07-23T02:06:31;6.50;;;5.90;;
2430;SDS011;1226;48.998;9.300;2022-07-23T02:08:57;7.48;;;5.34;;
2430;SDS011;1226;48.998;9.300;2022-07-23T02:11:23;7.02;;;6.32;;
2430;SDS011;1226;48.998;9.300;2022-07-23T02:13:48;7.64;;;5.70;;
2430;SDS011;1226;48.998;9.300;2022-07-23T02:16:14;5.88;;;5.14;;
2430;SDS011;1226;48.998;9.300;2022-07-23T02:18:40;7.04;;;5.64;;
2430;SDS011;1226;48.998;9.300;2022-07-23T02:21:06;8.82;;;5.92;;
2430;SDS011;1226;48.998;9.300;2022-07-23T02:23:32;6.34;;;5.74;;
2430;SDS011;1226;48.998;9.300;2022-07-23T02:25:58;6.18;;;5.58;;
2430;SDS011;1226;48.998;9.300;2022-07-23T02:28:24;6.00;;;5.40;;
2430;SDS011;1226;48.998;9.300;2022-07-23T02:30:50;7.20;;;6.34;;
2430;SDS011;1226;48.998;9.300;2022-07-23T02:33:15;6.34;;;5.72;;
2430;SDS011;1226;48.998;9.300;2022-07-23T02:35:41;6.60;;;5.90;;
2430;SDS011;1226;48.998;9.300;2022-07-23T02:38:07;7.60;;;6.78;;
2430;SDS011;1226;48.998;9.300;2022-07-23T02:40:33;6.82;;;5.82;;
2430;SDS011;1226;48.998;9.300;2022-07-23T02:42:59;6.62;;;5.96;;
2430;SDS011;1226;48.998;9.300;2022-07-23T02:45:25;5.98;;;5.48;;
2430;SDS011;1226;48.998;9.300;2022-07-23T02:47:51;6.58;;;5.82;;
2430;SDS011;1226;48.998;9.300;2022-07-23T02:50:17;6.72;;;6.02;;
2430;SDS011;1226;48.998;9.300;2022-07-23T02:52:43;6.84;;;6.14;;
2430;SDS011;1226;48.998;9.300;2022-07-23T02:55:08;6.64;;;6.04;;
2430;SDS011;1226;48.998;9.300;2022-07-23T02:57:34;6.12;;;5.52;;
2430;SDS011;1226;48.998;9.300;2022-07-23T03:00:00;6.10;;;5.50;;
2430;SDS011;1226;48.998;9.300;2022-07-23T03:02:26;6.08;;;5.52;;
2430;SDS011;1226;48.998;9.300;2022-07-23T03:04:52;8.28;;;6.22;;
2430;SDS011;1226;48.998;9.300;2022-07-23T03:07:18;7.34;;;6.04;;
2430;SDS011;1226;48.998;9.300;2022-07-23T03:09:43;6.76;;;6.08;;
2430;SDS011;1226;48.998;9.300;2022-07-23T03:12:09;7.24;;;6.20;;
2430;SDS011;1226;48.998;9.300;2022-07-23T03:14:35;6.82;;;6.10;;
2430;SDS011;1226;48.998;9.300;2022-07-23T03:17:01;6.90;;;6.20;;
2430;SDS011;1226;48.998;9.300;2022-07-23T03:19:27;7.08;;;6.38;;
2430;SDS011;1226;48.998;9.300;2022-07-23T03:21:53;9.52;;;6.06;;
2430;SDS011;1226;48.998;9.300;2022-07-23T03:24:19;6.46;;;5.86;;
2430;SDS011;1226;48.998;9.300;2022-07-23T03:26:44;5.52;;;5.02;;
2430;SDS011;1226;48.998;9.300;2022-07-23T03:29:10;9.32;;;6.10;;
2430;SDS011;1226;48.998;9.300;2022-07-23T03:31:36;6.88;;;6.18;;
2430;SDS011;1226;48.998;9.300;2022-07-23T03:34:02;7.20;;;6.50;;
2430;SDS011;1226;48.998;9.300;2022-07-23T03:36:28;8.00;;;7.04;;
2430;SDS011;1226;48.998;9.300;2022-07-23T03:38:54;7.54;;;6.72;;
2430;SDS011;1226;48.998;9.300;2022-07-23T03:41:20;7.02;;;6.18;;
2430;SDS011;1226;48.998;9.300;2022-07-23T03:43:46;7.08;;;6.38;;
2430;SDS011;1226;48.998;9.300;2022-07-23T03:46:11;7.58;;;6.36;;
2430;SDS011;1226;48.998;9.300;2022-07-23T03:48:37;7.80;;;6.56;;
2430;SDS011;1226;48.998;9.300;2022-07-23T03:51:03;6.42;;;5.82;;
2430;SDS011;1226;48.998;9.300;2022-07-23T03:53:29;7.16;;;5.94;;
2430;SDS011;1226;48.998;9.300;2022-07-23T03:55:55;8.88;;;6.02;;
2430;SDS011;1226;48.998;9.300;2022-07-23T03:58:21;8.50;;;5.92;;
2430;SDS011;1226;48.998;9.300;2022-07-23T04:00:47;6.78;;;6.18;;
2430;SDS011;1226;48.998;9.300;2022-07-23T04:03:12;6.62;;;5.24;;
2430;SDS011;1226;48.998;9.300;2022-07-23T04:05:38;7.74;;;6.08;;
2430;SDS011;1226;48.998;9.300;2022-07-23T04:08:04;8.36;;;6.28;;
2430;SDS011;1226;48.998;9.300;2022-07-23T04:10:30;6.32;;;5.72;;
2430;SDS011;1226;48.998;9.300;2022-07-23T04:12:56;6.50;;;5.90;;
2430;SDS011;1226;48.998;9.300;2022-07-23T04:15:22;7.04;;;6.42;;
2430;SDS011;1226;48.998;9.300;2022-07-23T04:17:48;7.56;;;6.34;;
2430;SDS011;1226;48.998;9.300;2022-07-23T04:20:13;6.76;;;5.30;;
2430;SDS011;1226;48.998;9.300;2022-07-23T04:22:39;5.70;;;5.20;;
2430;SDS011;1226;48.998;9.300;2022-07-23T04:25:05;6.68;;;5.96;;
2430;SDS011;1226;48.998;9.300;2022-07-23T04:27:31;5.90;;;5.30;;
2430;SDS011;1226;48.998;9.300;2022-07-23T04:29:57;6.90;;;6.20;;
2430;SDS011;1226;48.998;9.300;2022-07-23T04:32:25;6.30;;;5.70;;
2430;SDS011;1226;48.998;9.300;2022-07-23T04:34:51;7.76;;;6.28;;
2430;SDS011;1226;48.998;9.300;2022-07-23T04:37:17;8.42;;;6.20;;
2430;SDS011;1226;48.998;9.300;2022-07-23T04:39:43;6.10;;;5.44;;
2430;SDS011;1226;48.998;9.300;2022-07-23T04:42:09;6.60;;;5.96;;
2430;SDS011;1226;48.998;9.300;2022-07-23T04:44:35;7.50;;;6.70;;
2430;SDS011;1226;48.998;9.300;2022-07-23T04:47:00;5.96;;;5.46;;
2430;SDS011;1226;48.998;9.300;2022-07-23T04:49:26;7.00;;;6.26;;
2430;SDS011;1226;48.998;9.300;2022-07-23T04:51:52;6.92;;;5.86;;
2430;SDS011;1226;48.998;9.300;2022-07-23T04:54:18;6.90;;;6.22;;
2430;SDS011;1226;48.998;9.300;2022-07-23T04:56:44;6.48;;;5.48;;
2430;SDS011;1226;48.998;9.300;2022-07-23T04:59:10;7.22;;;5.80;;
2430;SDS011;1226;48.998;9.300;2022-07-23T05:01:36;7.40;;;5.94;;
2430;SDS011;1226;48.998;9.300;2022-07-23T05:04:02;7.38;;;6.20;;
2430;SDS011;1226;48.998;9.300;2022-07-23T05:06:27;6.42;;;5.82;;
2430;SDS011;1226;48.998;9.300;2022-07-23T05:08:53;8.62;;;6.08;;
2430;SDS011;1226;48.998;9.300;2022-07-23T05:11:19;7.38;;;6.60;;
2430;SDS011;1226;48.998;9.300;2022-07-23T05:13:45;7.64;;;6.66;;
2430;SDS011;1226;48.998;9.300;2022-07-23T05:16:11;7.86;;;7.06;;
2430;SDS011;1226;48.998;9.300;2022-07-23T05:18:37;8.62;;;6.24;;
2430;SDS011;1226;48.998;9.300;2022-07-23T05:21:03;7.72;;;6.86;;
2430;SDS011;1226;48.998;9.300;2022-07-23T05:23:28;7.16;;;6.26;;
2430;SDS011;1226;48.998;9.300;2022-07-23T05:25:54;9.80;;;7.04;;
2430;SDS011;1226;48.998;9.300;2022-07-23T05:28:20;7.30;;;6.60;;
2430;SDS011;1226;48.998;9.300;2022-07-23T05:30:46;8.34;;;6.38;;
2430;SDS011;1226;48.998;9.300;2022-07-23T05:33:12;7.18;;;6.48;;
2430;SDS011;1226;48.998;9.300;2022-07-23T05:35:38;7.54;;;6.58;;
2430;SDS011;1226;48.998;9.300;2022-07-23T05:38:04;6.86;;;6.16;;
2430;SDS011;1226;48.998;9.300;2022-07-23T05:40:30;6.88;;;6.28;;
2430;SDS011;1226;48.998;9.300;2022-07-23T05:42:55;7.20;;;6.46;;
2430;SDS011;1226;48.998;9.300;2022-07-23T05:45:21;7.30;;;6.60;;
2430;SDS011;1226;48.998;9.300;2022-07-23T05:47:48;7.82;;;6.32;;
2430;SDS011;1226;48.998;9.300;2022-07-23T05:50:13;8.02;;;7.32;;
2430;SDS011;1226;48.998;9.300;2022-07-23T05:52:39;7.48;;;6.78;;
2430;SDS011;1226;48.998;9.300;2022-07-23T05:55:05;9.16;;;6.58;;
2430;SDS011;1226;48.998;9.300;2022-07-23T05:57:31;7.36;;;6.60;;
2430;SDS011;1226;48.998;9.300;2022-07-23T05:59:56;9.22;;;6.92;;
2430;SDS011;1226;48.998;9.300;2022-07-23T06:02:22;8.26;;;7.46;;
2430;SDS011;1226;48.998;9.300;2022-07-23T06:04:48;8.06;;;6.90;;
2430;SDS011;1226;48.998;9.300;2022-07-23T06:07:14;8.68;;;7.52;;
2430;SDS011;1226;48.998;9.300;2022-07-23T06:09:40;9.54;;;8.14;;
2430;SDS011;1226;48.998;9.300;2022-07-23T06:12:06;10.84;;;9.00;;
2430;SDS011;1226;48.998;9.300;2022-07-23T06:14:32;11.22;;;9.72;;
2430;SDS011;1226;48.998;9.300;2022-07-23T06:16:58;12.94;;;9.62;;
2430;SDS011;1226;48.998;9.300;2022-07-23T06:19:23;11.18;;;8.92;;
2430;SDS011;1226;48.998;9.300;2022-07-23T06:21:49;13.22;;;11.52;;
2430;SDS011;1226;48.998;9.300;2022-07-23T06:24:15;11.06;;;9.86;;
2430;SDS011;1226;48.998;9.300;2022-07-23T06:26:41;14.54;;;10.32;;
2430;SDS011;1226;48.998;9.300;2022-07-23T06:29:07;12.60;;;11.26;;
2430;SDS011;1226;48.998;9.300;2022-07-23T06:31:33;15.12;;;11.68;;
2430;SDS011;1226;48.998;9.300;2022-07-23T06:33:59;15.06;;;10.64;;
2430;SDS011;1226;48.998;9.300;2022-07-23T06:36:25;15.30;;;11.52;;
2430;SDS011;1226;48.998;9.300;2022-07-23T06:38:51;13.58;;;12.14;;
2430;SDS011;1226;48.998;9.300;2022-07-23T06:41:16;14.78;;;12.40;;
2430;SDS011;1226;48.998;9.300;2022-07-23T06:43:42;18.08;;;12.02;;
2430;SDS011;1226;48.998;9.300;2022-07-23T06:46:08;15.66;;;12.86;;
2430;SDS011;1226;48.998;9.300;2022-07-23T06:48:34;14.52;;;12.36;;
2430;SDS011;1226;48.998;9.300;2022-07-23T06:51:00;14.86;;;12.66;;
2430;SDS011;1226;48.998;9.300;2022-07-23T06:53:26;16.46;;;14.44;;
2430;SDS011;1226;48.998;9.300;2022-07-23T06:55:52;16.96;;;13.30;;
2430;SDS011;1226;48.998;9.300;2022-07-23T06:58:17;17.78;;;13.42;;
2430;SDS011;1226;48.998;9.300;2022-07-23T07:00:43;15.38;;;12.88;;
2430;SDS011;1226;48.998;9.300;2022-07-23T07:03:09;15.18;;;12.86;;
2430;SDS011;1226;48.998;9.300;2022-07-23T07:05:35;18.84;;;13.16;;
2430;SDS011;1226;48.998;9.300;2022-07-23T07:08:01;14.10;;;12.60;;
2430;SDS011;1226;48.998;9.300;2022-07-23T07:10:27;18.18;;;11.86;;
2430;SDS011;1226;48.998;9.300;2022-07-23T07:12:53;15.72;;;12.38;;
2430;SDS011;1226;48.998;9.300;2022-07-23T07:15:19;20.96;;;13.30;;
2430;SDS011;1226;48.998;9.300;2022-07-23T07:17:44;12.26;;;10.92;;
2430;SDS011;1226;48.998;9.300;2022-07-23T07:20:10;15.46;;;12.70;;
2430;SDS011;1226;48.998;9.300;2022-07-23T07:22:36;16.66;;;13.54;;
2430;SDS011;1226;48.998;9.300;2022-07-23T07:25:02;15.82;;;13.44;;
2430;SDS011;1226;48.998;9.300;2022-07-23T07:27:28;15.74;;;12.28;;
2430;SDS011;1226;48.998;9.300;2022-07-23T07:29:54;15.38;;;11.96;;
2430;SDS011;1226;48.998;9.300;2022-07-23T07:32:20;18.58;;;13.64;;
2430;SDS011;1226;48.998;9.300;2022-07-23T07:34:46;15.54;;;13.00;;
2430;SDS011;1226;48.998;9.300;2022-07-23T07:37:12;16.12;;;12.76;;
2430;SDS011;1226;48.998;9.300;2022-07-23T07:39:38;15.32;;;12.54;;
2430;SDS011;1226;48.998;9.300;2022-07-23T07:42:03;15.30;;;12.38;;
2430;SDS011;1226;48.998;9.300;2022-07-23T07:44:29;18.02;;;12.96;;
2430;SDS011;1226;48.998;9.300;2022-07-23T07:46:55;17.50;;;12.50;;
2430;SDS011;1226;48.998;9.300;2022-07-23T07:49:21;16.92;;;12.86;;
2430;SDS011;1226;48.998;9.300;2022-07-23T07:51:47;16.36;;;14.44;;
2430;SDS011;1226;48.998;9.300;2022-07-23T07:54:13;20.08;;;15.20;;
2430;SDS011;1226;48.998;9.300;2022-07-23T07:56:39;15.90;;;13.34;;
2430;SDS011;1226;48.998;9.300;2022-07-23T07:59:04;17.62;;;14.14;;
2430;SDS011;1226;48.998;9.300;2022-07-23T08:01:30;17.04;;;13.54;;
2430;SDS011;1226;48.998;9.300;2022-07-23T08:03:56;15.12;;;12.48;;
2430;SDS011;1226;48.998;9.300;2022-07-23T08:06:22;16.34;;;12.02;;
2430;SDS011;1226;48.998;9.300;2022-07-23T08:08:48;17.40;;;14.04;;
2430;SDS011;1226;48.998;9.300;2022-07-23T08:11:14;19.70;;;15.60;;
2430;SDS011;1226;48.998;9.300;2022-07-23T08:13:40;17.76;;;13.84;;
2430;SDS011;1226;48.998;9.300;2022-07-23T08:16:06;15.30;;;13.40;;
2430;SDS011;1226;48.998;9.300;2022-07-23T08:18:31;16.04;;;13.20;;
2430;SDS011;1226;48.998;9.300;2022-07-23T08:20:57;18.68;;;13.84;;
2430;SDS011;1226;48.998;9.300;2022-07-23T08:23:23;15.58;;;12.90;;
2430;SDS011;1226;48.998;9.300;2022-07-23T08:25:49;16.56;;;13.20;;
2430;SDS011;1226;48.998;9.300;2022-07-23T08:28:15;15.88;;;13.72;;
2430;SDS011;1226;48.998;9.300;2022-07-23T08:30:41;15.16;;;13.08;;
2430;SDS011;1226;48.998;9.300;2022-07-23T08:33:10;17.80;;;14.28;;
2430;SDS011;1226;48.998;9.300;2022-07-23T08:35:38;18.36;;;13.00;;
2430;SDS011;1226;48.998;9.300;2022-07-23T08:38:04;14.24;;;12.68;;
2430;SDS011;1226;48.998;9.300;2022-07-23T08:40:30;16.02;;;13.18;;
2430;SDS011;1226;48.998;9.300;2022-07-23T08:42:55;16.94;;;13.50;;
2430;SDS011;1226;48.998;9.300;2022-07-23T08:45:21;16.18;;;13.22;;
2430;SDS011;1226;48.998;9.300;2022-07-23T08:47:50;14.52;;;10.84;;
2430;SDS011;1226;48.998;9.300;2022-07-23T08:50:14;13.66;;;12.28;;
2430;SDS011;1226;48.998;9.300;2022-07-23T08:52:40;16.28;;;12.60;;
2430;SDS011;1226;48.998;9.300;2022-07-23T08:55:06;16.60;;;12.80;;
2430;SDS011;1226;48.998;9.300;2022-07-23T08:57:32;16.58;;;13.10;;
2430;SDS011;1226;48.998;9.300;2022-07-23T08:59:57;20.82;;;14.20;;
2430;SDS011;1226;48.998;9.300;2022-07-23T09:02:23;13.08;;;11.68;;
2430;SDS011;1226;48.998;9.300;2022-07-23T09:04:49;13.30;;;11.94;;
2430;SDS011;1226;48.998;9.300;2022-07-23T09:07:15;15.16;;;13.40;;
2430;SDS011;1226;48.998;9.300;2022-07-23T09:09:41;15.10;;;11.46;;
2430;SDS011;1226;48.998;9.300;2022-07-23T09:12:08;12.86;;;11.14;;
2430;SDS011;1226;48.998;9.300;2022-07-23T09:14:35;13.24;;;10.70;;
2430;SDS011;1226;48.998;9.300;2022-07-23T09:17:07;12.60;;;10.96;;
2430;SDS011;1226;48.998;9.300;2022-07-23T09:19:27;14.88;;;11.98;;
2430;SDS011;1226;48.998;9.300;2022-07-23T09:21:52;11.96;;;10.62;;
2430;SDS011;1226;48.998;9.300;2022-07-23T09:24:18;11.62;;;10.02;;
2430;SDS011;1226;48.998;9.300;2022-07-23T09:26:45;10.90;;;9.64;;
2430;SDS011;1226;48.998;9.300;2022-07-23T09:29:12;10.48;;;9.12;;
2430;SDS011;1226;48.998;9.300;2022-07-23T09:31:45;10.64;;;9.54;;
2430;SDS011;1226;48.998;9.300;2022-07-23T09:34:12;11.96;;;9.90;;
2430;SDS011;1226;48.998;9.300;2022-07-23T09:36:36;9.98;;;8.42;;
2430;SDS011;1226;48.998;9.300;2022-07-23T09:39:02;12.04;;;10.16;;
2430;SDS011;1226;48.998;9.300;2022-07-23T09:41:34;10.02;;;9.02;;
2430;SDS011;1226;48.998;9.300;2022-07-23T09:43:54;11.10;;;9.06;;
2430;SDS011;1226;48.998;9.300;2022-07-23T09:46:23;10.62;;;9.44;;
2430;SDS011;1226;48.998;9.300;2022-07-23T09:48:47;9.72;;;8.78;;
2430;SDS011;1226;48.998;9.300;2022-07-23T09:51:12;10.34;;;9.30;;
2430;SDS011;1226;48.998;9.300;2022-07-23T09:53:38;9.90;;;8.90;;
2430;SDS011;1226;48.998;9.300;2022-07-23T09:56:04;10.14;;;8.28;;
2430;SDS011;1226;48.998;9.300;2022-07-23T09:58:30;9.08;;;8.02;;
2430;SDS011;1226;48.998;9.300;2022-07-23T10:00:56;14.28;;;8.70;;
2430;SDS011;1226;48.998;9.300;2022-07-23T10:03:22;9.48;;;8.26;;
2430;SDS011;1226;48.998;9.300;2022-07-23T10:05:47;10.72;;;8.34;;
2430;SDS011;1226;48.998;9.300;2022-07-23T10:08:13;9.30;;;8.38;;
2430;SDS011;1226;48.998;9.300;2022-07-23T10:10:39;12.32;;;8.58;;
2430;SDS011;1226;48.998;9.300;2022-07-23T10:13:05;9.48;;;8.58;;
2430;SDS011;1226;48.998;9.300;2022-07-23T10:15:33;10.10;;;8.86;;
2430;SDS011;1226;48.998;9.300;2022-07-23T10:17:59;13.26;;;9.36;;
2430;SDS011;1226;48.998;9.300;2022-07-23T10:20:24;9.80;;;8.80;;
2430;SDS011;1226;48.998;9.300;2022-07-23T10:25:24;10.86;;;9.04;;
2430;SDS011;1226;48.998;9.300;2022-07-23T10:28:03;8.80;;;7.90;;
2430;SDS011;1226;48.998;9.300;2022-07-23T10:30:20;8.98;;;8.08;;
2430;SDS011;1226;48.998;9.300;2022-07-23T10:32:45;8.92;;;7.96;;
2430;SDS011;1226;48.998;9.300;2022-07-23T10:35:12;8.50;;;7.60;;
2430;SDS011;1226;48.998;9.300;2022-07-23T10:37:38;8.10;;;7.40;;
2430;SDS011;1226;48.998;9.300;2022-07-23T10:40:08;8.04;;;7.28;;
2430;SDS011;1226;48.998;9.300;2022-07-23T10:42:34;11.50;;;7.82;;
2430;SDS011;1226;48.998;9.300;2022-07-23T10:44:59;8.54;;;6.52;;
2430;SDS011;1226;48.998;9.300;2022-07-23T10:47:27;9.06;;;7.02;;
2430;SDS011;1226;48.998;9.300;2022-07-23T10:49:54;8.30;;;7.20;;
2430;SDS011;1226;48.998;9.300;2022-07-23T10:52:21;8.42;;;7.62;;
2430;SDS011;1226;48.998;9.300;2022-07-23T10:54:48;8.94;;;8.04;;
2430;SDS011;1226;48.998;9.300;2022-07-23T10:57:12;8.74;;;7.84;;
2430;SDS011;1226;48.998;9.300;2022-07-23T11:02:28;8.86;;;8.00;;
2430;SDS011;1226;48.998;9.300;2022-07-23T11:04:48;8.12;;;7.30;;
2430;SDS011;1226;48.998;9.300;2022-07-23T11:07:07;7.12;;;6.48;;
2430;SDS011;1226;48.998;9.300;2022-07-23T11:09:39;8.62;;;7.82;;
2430;SDS011;1226;48.998;9.300;2022-07-23T11:17:18;7.48;;;6.74;;
2430;SDS011;1226;48.998;9.300;2022-07-23T11:19:42;7.54;;;6.78;;
2430;SDS011;1226;48.998;9.300;2022-07-23T11:21:58;7.98;;;7.28;;
2430;SDS011;1226;48.998;9.300;2022-07-23T11:24:24;7.44;;;6.74;;
2430;SDS011;1226;48.998;9.300;2022-07-23T11:26:52;7.44;;;6.76;;
2430;SDS011;1226;48.998;9.300;2022-07-23T11:31:54;8.14;;;7.36;;
2430;SDS011;1226;48.998;9.300;2022-07-23T11:34:53;7.88;;;7.06;;
2430;SDS011;1226;48.998;9.300;2022-07-23T11:36:49;7.62;;;6.92;;
2430;SDS011;1226;48.998;9.300;2022-07-23T11:39:14;7.96;;;7.00;;
2430;SDS011;1226;48.998;9.300;2022-07-23T11:41:44;8.74;;;7.86;;
2430;SDS011;1226;48.998;9.300;2022-07-23T11:46:41;8.20;;;7.50;;
2430;SDS011;1226;48.998;9.300;2022-07-23T11:49:10;8.70;;;7.60;;
2430;SDS011;1226;48.998;9.300;2022-07-23T11:51:36;7.20;;;6.58;;
2430;SDS011;1226;48.998;9.300;2022-07-23T11:54:05;8.10;;;7.30;;
2430;SDS011;1226;48.998;9.300;2022-07-23T11:56:31;7.80;;;7.10;;
2430;SDS011;1226;48.998;9.300;2022-07-23T11:58:57;10.10;;;7.58;;
2430;SDS011;1226;48.998;9.300;2022-07-23T12:01:23;8.76;;;7.18;;
2430;SDS011;1226;48.998;9.300;2022-07-23T12:03:49;8.12;;;7.42;;
2430;SDS011;1226;48.998;9.300;2022-07-23T12:06:14;8.08;;;7.32;;
2430;SDS011;1226;48.998;9.300;2022-07-23T12:08:41;7.90;;;7.10;;
2430;SDS011;1226;48.998;9.300;2022-07-23T12:11:06;6.86;;;6.26;;
2430;SDS011;1226;48.998;9.300;2022-07-23T12:13:32;7.74;;;6.90;;
2430;SDS011;1226;48.998;9.300;2022-07-23T12:15:58;7.42;;;6.72;;
2430;SDS011;1226;48.998;9.300;2022-07-23T12:18:24;7.58;;;6.88;;
2430;SDS011;1226;48.998;9.300;2022-07-23T12:20:52;9.50;;;8.12;;
2430;SDS011;1226;48.998;9.300;2022-07-23T12:23:16;8.04;;;7.34;;
2430;SDS011;1226;48.998;9.300;2022-07-23T12:25:42;9.00;;;7.00;;
2430;SDS011;1226;48.998;9.300;2022-07-23T12:28:15;7.80;;;7.20;;
2430;SDS011;1226;48.998;9.300;2022-07-23T12:30:41;7.82;;;7.04;;
2430;SDS011;1226;48.998;9.300;2022-07-23T12:33:05;8.40;;;6.76;;
2430;SDS011;1226;48.998;9.300;2022-07-23T12:35:32;7.94;;;7.14;;
2430;SDS011;1226;48.998;9.300;2022-07-23T12:37:59;7.54;;;6.84;;
2430;SDS011;1226;48.998;9.300;2022-07-23T12:40:25;8.52;;;7.26;;
2430;SDS011;1226;48.998;9.300;2022-07-23T12:42:50;8.24;;;7.44;;
2430;SDS011;1226;48.998;9.300;2022-07-23T12:45:15;8.10;;;7.30;;
2430;SDS011;1226;48.998;9.300;2022-07-23T12:50:30;7.84;;;7.14;;
2430;SDS011;1226;48.998;9.300;2022-07-23T12:52:38;9.30;;;8.04;;
2430;SDS011;1226;48.998;9.300;2022-07-23T12:55:04;8.80;;;8.00;;
2430;SDS011;1226;48.998;9.300;2022-07-23T13:00:07;8.90;;;7.98;;
2430;SDS011;1226;48.998;9.300;2022-07-23T13:05:04;8.94;;;8.04;;
2430;SDS011;1226;48.998;9.300;2022-07-23T13:07:30;8.80;;;7.92;;
2430;SDS011;1226;48.998;9.300;2022-07-23T13:09:56;9.18;;;8.28;;
2430;SDS011;1226;48.998;9.300;2022-07-23T13:12:22;8.48;;;7.36;;
2430;SDS011;1226;48.998;9.300;2022-07-23T13:14:48;7.80;;;7.10;;
2430;SDS011;1226;48.998;9.300;2022-07-23T13:17:13;7.28;;;6.58;;
2430;SDS011;1226;48.998;9.300;2022-07-23T13:19:39;8.20;;;7.50;;
2430;SDS011;1226;48.998;9.300;2022-07-23T13:22:05;9.32;;;8.12;;
2430;SDS011;1226;48.998;9.300;2022-07-23T13:24:31;9.16;;;8.08;;
2430;SDS011;1226;48.998;9.300;2022-07-23T13:26:57;9.14;;;8.34;;
2430;SDS011;1226;48.998;9.300;2022-07-23T13:29:23;10.72;;;8.60;;
2430;SDS011;1226;48.998;9.300;2022-07-23T13:31:49;10.24;;;8.50;;
2430;SDS011;1226;48.998;9.300;2022-07-23T13:34:14;8.74;;;7.90;;
2430;SDS011;1226;48.998;9.300;2022-07-23T13:36:40;8.48;;;7.64;;
2430;SDS011;1226;48.998;9.300;2022-07-23T13:39:06;7.82;;;7.06;;
2430;SDS011;1226;48.998;9.300;2022-07-23T13:41:32;7.42;;;6.72;;
2430;SDS011;1226;48.998;9.300;2022-07-23T13:43:59;8.36;;;7.56;;
2430;SDS011;1226;48.998;9.300;2022-07-23T13:46:24;8.48;;;7.70;;
2430;SDS011;1226;48.998;9.300;2022-07-23T13:48:50;9.16;;;8.20;;
2430;SDS011;1226;48.998;9.300;2022-07-23T13:51:15;7.62;;;6.92;;
2430;SDS011;1226;48.998;9.300;2022-07-23T13:53:41;7.40;;;6.70;;
2430;SDS011;1226;48.998;9.300;2022-07-23T13:56:07;8.30;;;7.54;;
2430;SDS011;1226;48.998;9.300;2022-07-23T13:58:33;8.58;;;7.12;;
2430;SDS011;1226;48.998;9.300;2022-07-23T14:00:59;8.26;;;7.40;;
2430;SDS011;1226;48.998;9.300;2022-07-23T14:03:25;8.52;;;7.68;;
2430;SDS011;1226;48.998;9.300;2022-07-23T14:05:51;8.26;;;7.54;;
2430;SDS011;1226;48.998;9.300;2022-07-23T14:08:17;8.40;;;7.64;;
2430;SDS011;1226;48.998;9.300;2022-07-23T14:10:43;8.58;;;7.88;;
2430;SDS011;1226;48.998;9.300;2022-07-23T14:13:12;8.16;;;7.38;;
2430;SDS011;1226;48.998;9.300;2022-07-23T14:15:38;7.96;;;7.24;;
2430;SDS011;1226;48.998;9.300;2022-07-23T14:18:04;7.60;;;6.90;;
2430;SDS011;1226;48.998;9.300;2022-07-23T14:20:30;8.42;;;7.72;;
2430;SDS011;1226;48.998;9.300;2022-07-23T14:22:56;8.26;;;7.38;;
2430;SDS011;1226;48.998;9.300;2022-07-23T14:25:22;8.68;;;7.84;;
2430;SDS011;1226;48.998;9.300;2022-07-23T14:27:47;9.12;;;8.22;;
2430;SDS011;1226;48.998;9.300;2022-07-23T14:30:13;8.84;;;7.84;;
2430;SDS011;1226;48.998;9.300;2022-07-23T14:32:39;9.50;;;8.50;;
2430;SDS011;1226;48.998;9.300;2022-07-23T14:35:05;8.84;;;7.98;;
2430;SDS011;1226;48.998;9.300;2022-07-23T14:37:31;8.74;;;7.88;;
2430;SDS011;1226;48.998;9.300;2022-07-23T14:39:57;9.84;;;8.50;;
2430;SDS011;1226;48.998;9.300;2022-07-23T14:42:23;9.00;;;8.20;;
2430;SDS011;1226;48.998;9.300;2022-07-23T14:44:48;8.94;;;8.08;;
2430;SDS011;1226;48.998;9.300;2022-07-23T14:47:14;9.92;;;8.92;;
2430;SDS011;1226;48.998;9.300;2022-07-23T14:49:40;9.44;;;8.54;;
2430;SDS011;1226;48.998;9.300;2022-07-23T14:52:06;9.48;;;8.58;;
2430;SDS011;1226;48.998;9.300;2022-07-23T14:54:32;9.48;;;8.58;;
2430;SDS011;1226;48.998;9.300;2022-07-23T14:56:58;9.20;;;8.30;;
2430;SDS011;1226;48.998;9.300;2022-07-23T14:59:24;9.90;;;9.00;;
2430;SDS011;1226;48.998;9.300;2022-07-23T15:01:49;9.84;;;8.92;;
2430;SDS011;1226;48.998;9.300;2022-07-23T15:04:15;9.96;;;8.96;;
2430;SDS011;1226;48.998;9.300;2022-07-23T15:06:41;10.38;;;9.48;;
2430;SDS011;1226;48.998;9.300;2022-07-23T15:09:07;10.26;;;9.36;;
2430;SDS011;1226;48.998;9.300;2022-07-23T15:11:33;11.14;;;8.76;;
2430;SDS011;1226;48.998;9.300;2022-07-23T15:14:00;8.84;;;8.04;;
2430;SDS011;1226;48.998;9.300;2022-07-23T15:16:25;10.52;;;9.56;;
2430;SDS011;1226;48.998;9.300;2022-07-23T15:18:51;10.32;;;9.42;;
2430;SDS011;1226;48.998;9.300;2022-07-23T15:21:17;10.70;;;9.60;;
2430;SDS011;1226;48.998;9.300;2022-07-23T15:23:43;9.32;;;8.52;;